sensor_id;sensor_type;location;lat;lon;timestamp;temperature;humidity
19555;DHT22;9924;50.828;6.440;2023-06-26T00:01:05;20.00;99.90
19555;DHT22;9924;50.828;6.440;2023-06-26T00:03:49;20.00;99.90
19555;DHT22;9924;50.828;6.440;2023-06-26T00:06:34;20.00;99.90
19555;DHT22;9924;50.828;6.440;2023-06-26T00:09:18;19.90;99.90
19555;DHT22;9924;50.828;6.440;2023-06-26T00:12:03;19.80;99.90
19555;DHT22;9924;50.828;6.440;2023-06-26T00:14:48;19.70;99.90
19555;DHT22;9924;50.828;6.440;2023-06-26T00:17:32;19.70;99.90
19555;DHT22;9924;50.828;6.440;2023-06-26T00:20:21;19.60;99.90
19555;DHT22;9924;50.828;6.440;2023-06-26T00:23:07;19.60;99.90
19555;DHT22;9924;50.828;6.440;2023-06-26T00:25:52;19.60;99.90
19555;DHT22;9924;50.828;6.440;2023-06-26T00:28:36;19.50;99.90
19555;DHT22;9924;50.828;6.440;2023-06-26T00:31:21;19.40;99.90
19555;DHT22;9924;50.828;6.440;2023-06-26T00:34:05;19.30;99.90
19555;DHT22;9924;50.828;6.440;2023-06-26T00:36:50;19.30;99.90
19555;DHT22;9924;50.828;6.440;2023-06-26T00:39:34;19.20;99.90
19555;DHT22;9924;50.828;6.440;2023-06-26T00:42:19;19.20;99.90
19555;DHT22;9924;50.828;6.440;2023-06-26T00:45:04;19.20;99.90
19555;DHT22;9924;50.828;6.440;2023-06-26T00:47:48;19.20;99.90
19555;DHT22;9924;50.828;6.440;2023-06-26T00:50:33;19.30;99.90
19555;DHT22;9924;50.828;6.440;2023-06-26T00:53:18;19.30;99.90
19555;DHT22;9924;50.828;6.440;2023-06-26T00:56:03;19.30;99.90
19555;DHT22;9924;50.828;6.440;2023-06-26T00:58:48;19.40;99.90
19555;DHT22;9924;50.828;6.440;2023-06-26T01:01:32;19.40;99.90
19555;DHT22;9924;50.828;6.440;2023-06-26T01:04:17;19.40;99.90
19555;DHT22;9924;50.828;6.440;2023-06-26T01:07:02;19.30;99.90
19555;DHT22;9924;50.828;6.440;2023-06-26T01:09:48;19.30;99.90
19555;DHT22;9924;50.828;6.440;2023-06-26T01:12:34;19.20;99.90
19555;DHT22;9924;50.828;6.440;2023-06-26T01:15:19;19.30;99.90
19555;DHT22;9924;50.828;6.440;2023-06-26T01:18:04;19.30;99.90
19555;DHT22;9924;50.828;6.440;2023-06-26T01:20:49;19.30;99.90
19555;DHT22;9924;50.828;6.440;2023-06-26T01:26:29;19.50;99.90
19555;DHT22;9924;50.828;6.440;2023-06-26T01:29:16;19.50;99.90
19555;DHT22;9924;50.828;6.440;2023-06-26T01:32:02;19.50;99.90
19555;DHT22;9924;50.828;6.440;2023-06-26T01:34:46;19.50;99.90
19555;DHT22;9924;50.828;6.440;2023-06-26T01:37:31;19.50;99.90
19555;DHT22;9924;50.828;6.440;2023-06-26T01:40:16;19.40;99.90
19555;DHT22;9924;50.828;6.440;2023-06-26T01:43:01;19.30;99.90
19555;DHT22;9924;50.828;6.440;2023-06-26T01:45:48;19.10;99.90
19555;DHT22;9924;50.828;6.440;2023-06-26T01:48:40;19.00;99.90
19555;DHT22;9924;50.828;6.440;2023-06-26T01:51:30;18.90;99.90
19555;DHT22;9924;50.828;6.440;2023-06-26T01:54:18;18.90;99.90
19555;DHT22;9924;50.828;6.440;2023-06-26T01:57:04;18.70;99.90
19555;DHT22;9924;50.828;6.440;2023-06-26T01:59:51;18.70;99.90
19555;DHT22;9924;50.828;6.440;2023-06-26T02:02:36;18.70;99.90
19555;DHT22;9924;50.828;6.440;2023-06-26T02:05:21;18.70;99.90
19555;DHT22;9924;50.828;6.440;2023-06-26T02:08:13;18.80;99.90
19555;DHT22;9924;50.828;6.440;2023-06-26T02:10:58;19.10;99.90
19555;DHT22;9924;50.828;6.440;2023-06-26T02:13:43;19.60;99.90
19555;DHT22;9924;50.828;6.440;2023-06-26T02:16:27;20.20;99.90
19555;DHT22;9924;50.828;6.440;2023-06-26T02:19:12;20.60;99.90
19555;DHT22;9924;50.828;6.440;2023-06-26T02:21:56;20.80;99.90
19555;DHT22;9924;50.828;6.440;2023-06-26T02:24:44;21.00;99.90
19555;DHT22;9924;50.828;6.440;2023-06-26T02:27:28;21.20;99.90
19555;DHT22;9924;50.828;6.440;2023-06-26T02:30:13;21.30;99.90
19555;DHT22;9924;50.828;6.440;2023-06-26T02:32:58;21.30;99.90
19555;DHT22;9924;50.828;6.440;2023-06-26T02:35:42;21.30;99.90
19555;DHT22;9924;50.828;6.440;2023-06-26T02:38:26;21.30;99.90
19555;DHT22;9924;50.828;6.440;2023-06-26T02:41:11;21.30;99.90
19555;DHT22;9924;50.828;6.440;2023-06-26T02:43:56;21.30;99.90
19555;DHT22;9924;50.828;6.440;2023-06-26T02:46:40;21.20;99.90
19555;DHT22;9924;50.828;6.440;2023-06-26T02:49:25;21.20;99.90
19555;DHT22;9924;50.828;6.440;2023-06-26T02:52:10;21.20;99.90
19555;DHT22;9924;50.828;6.440;2023-06-26T02:54:54;21.10;99.90
19555;DHT22;9924;50.828;6.440;2023-06-26T02:57:39;21.10;99.90
19555;DHT22;9924;50.828;6.440;2023-06-26T03:00:23;21.10;99.90
19555;DHT22;9924;50.828;6.440;2023-06-26T03:03:08;21.10;99.90
19555;DHT22;9924;50.828;6.440;2023-06-26T03:05:53;21.10;99.90
19555;DHT22;9924;50.828;6.440;2023-06-26T03:08:38;21.00;99.90
19555;DHT22;9924;50.828;6.440;2023-06-26T03:11:25;21.00;99.90
19555;DHT22;9924;50.828;6.440;2023-06-26T03:14:09;21.00;99.90
19555;DHT22;9924;50.828;6.440;2023-06-26T03:16:54;20.90;99.90
19555;DHT22;9924;50.828;6.440;2023-06-26T03:19:42;20.90;99.90
19555;DHT22;9924;50.828;6.440;2023-06-26T03:22:26;20.80;99.90
19555;DHT22;9924;50.828;6.440;2023-06-26T03:25:10;20.80;99.90
19555;DHT22;9924;50.828;6.440;2023-06-26T03:27:55;20.80;99.90
19555;DHT22;9924;50.828;6.440;2023-06-26T03:30:40;20.70;99.90
19555;DHT22;9924;50.828;6.440;2023-06-26T03:33:24;20.70;99.90
19555;DHT22;9924;50.828;6.440;2023-06-26T03:36:09;20.70;99.90
19555;DHT22;9924;50.828;6.440;2023-06-26T03:38:53;20.70;99.90
19555;DHT22;9924;50.828;6.440;2023-06-26T03:41:40;20.70;99.90
19555;DHT22;9924;50.828;6.440;2023-06-26T03:44:25;20.70;99.90
19555;DHT22;9924;50.828;6.440;2023-06-26T03:47:09;20.70;99.90
19555;DHT22;9924;50.828;6.440;2023-06-26T03:49:53;20.70;99.90
19555;DHT22;9924;50.828;6.440;2023-06-26T03:52:38;20.60;99.90
19555;DHT22;9924;50.828;6.440;2023-06-26T03:55:22;20.50;99.90
19555;DHT22;9924;50.828;6.440;2023-06-26T03:58:08;20.50;99.90
19555;DHT22;9924;50.828;6.440;2023-06-26T04:00:52;20.50;99.90
19555;DHT22;9924;50.828;6.440;2023-06-26T04:03:37;20.50;99.90
19555;DHT22;9924;50.828;6.440;2023-06-26T04:06:21;20.50;99.90
19555;DHT22;9924;50.828;6.440;2023-06-26T04:09:06;20.50;99.90
19555;DHT22;9924;50.828;6.440;2023-06-26T04:11:51;20.50;99.90
19555;DHT22;9924;50.828;6.440;2023-06-26T04:14:38;20.50;99.90
19555;DHT22;9924;50.828;6.440;2023-06-26T04:17:23;20.50;99.90
19555;DHT22;9924;50.828;6.440;2023-06-26T04:20:07;20.50;99.90
19555;DHT22;9924;50.828;6.440;2023-06-26T04:22:53;20.50;99.90
19555;DHT22;9924;50.828;6.440;2023-06-26T04:25:37;20.50;99.90
19555;DHT22;9924;50.828;6.440;2023-06-26T04:28:22;20.50;99.90
19555;DHT22;9924;50.828;6.440;2023-06-26T04:31:07;20.50;99.90
19555;DHT22;9924;50.828;6.440;2023-06-26T04:33:52;20.40;99.90
19555;DHT22;9924;50.828;6.440;2023-06-26T04:36:38;20.40;99.90
19555;DHT22;9924;50.828;6.440;2023-06-26T04:39:26;20.30;99.90
19555;DHT22;9924;50.828;6.440;2023-06-26T04:42:11;20.30;99.90
19555;DHT22;9924;50.828;6.440;2023-06-26T04:44:56;20.30;99.90
19555;DHT22;9924;50.828;6.440;2023-06-26T04:47:41;20.30;99.90
19555;DHT22;9924;50.828;6.440;2023-06-26T04:50:25;20.40;99.90
19555;DHT22;9924;50.828;6.440;2023-06-26T04:53:10;20.40;99.90
19555;DHT22;9924;50.828;6.440;2023-06-26T04:55:54;20.30;99.90
19555;DHT22;9924;50.828;6.440;2023-06-26T04:58:39;20.30;99.90
19555;DHT22;9924;50.828;6.440;2023-06-26T05:01:23;20.30;99.90
19555;DHT22;9924;50.828;6.440;2023-06-26T05:04:07;20.20;99.90
19555;DHT22;9924;50.828;6.440;2023-06-26T05:06:52;20.20;99.90
19555;DHT22;9924;50.828;6.440;2023-06-26T05:09:37;20.10;99.90
19555;DHT22;9924;50.828;6.440;2023-06-26T05:12:21;20.00;99.90
19555;DHT22;9924;50.828;6.440;2023-06-26T05:15:06;20.00;99.90
19555;DHT22;9924;50.828;6.440;2023-06-26T05:17:54;20.00;99.90
19555;DHT22;9924;50.828;6.440;2023-06-26T05:20:38;20.00;99.90
19555;DHT22;9924;50.828;6.440;2023-06-26T05:23:25;20.00;99.90
19555;DHT22;9924;50.828;6.440;2023-06-26T05:26:10;20.10;99.90
19555;DHT22;9924;50.828;6.440;2023-06-26T05:28:55;20.10;99.90
19555;DHT22;9924;50.828;6.440;2023-06-26T05:31:41;20.20;99.90
19555;DHT22;9924;50.828;6.440;2023-06-26T05:34:26;20.10;99.90
19555;DHT22;9924;50.828;6.440;2023-06-26T05:37:21;20.10;99.90
19555;DHT22;9924;50.828;6.440;2023-06-26T05:40:06;20.20;99.90
19555;DHT22;9924;50.828;6.440;2023-06-26T05:42:51;20.20;99.90
19555;DHT22;9924;50.828;6.440;2023-06-26T05:45:36;20.20;99.90
19555;DHT22;9924;50.828;6.440;2023-06-26T05:48:21;20.20;99.90
19555;DHT22;9924;50.828;6.440;2023-06-26T05:51:05;20.30;99.90
19555;DHT22;9924;50.828;6.440;2023-06-26T05:53:50;20.30;99.90
19555;DHT22;9924;50.828;6.440;2023-06-26T05:56:36;20.40;99.90
19555;DHT22;9924;50.828;6.440;2023-06-26T05:59:20;20.40;99.90
19555;DHT22;9924;50.828;6.440;2023-06-26T06:02:05;20.30;99.90
19555;DHT22;9924;50.828;6.440;2023-06-26T06:04:49;20.20;99.90
19555;DHT22;9924;50.828;6.440;2023-06-26T06:07:34;20.10;99.90
19555;DHT22;9924;50.828;6.440;2023-06-26T06:10:19;20.10;99.90
19555;DHT22;9924;50.828;6.440;2023-06-26T06:13:04;20.10;99.90
19555;DHT22;9924;50.828;6.440;2023-06-26T06:15:49;20.20;99.90
19555;DHT22;9924;50.828;6.440;2023-06-26T06:18:33;20.30;99.90
19555;DHT22;9924;50.828;6.440;2023-06-26T06:21:18;20.60;99.90
19555;DHT22;9924;50.828;6.440;2023-06-26T06:24:02;21.00;99.90
19555;DHT22;9924;50.828;6.440;2023-06-26T06:26:47;21.20;99.90
19555;DHT22;9924;50.828;6.440;2023-06-26T06:29:31;21.50;99.90
19555;DHT22;9924;50.828;6.440;2023-06-26T06:32:16;21.70;99.90
19555;DHT22;9924;50.828;6.440;2023-06-26T06:35:00;22.20;99.90
19555;DHT22;9924;50.828;6.440;2023-06-26T06:37:51;22.10;99.90
19555;DHT22;9924;50.828;6.440;2023-06-26T06:40:36;22.40;99.90
19555;DHT22;9924;50.828;6.440;2023-06-26T06:43:23;22.40;99.90
19555;DHT22;9924;50.828;6.440;2023-06-26T06:46:11;22.10;99.90
19555;DHT22;9924;50.828;6.440;2023-06-26T06:48:55;22.00;99.90
19555;DHT22;9924;50.828;6.440;2023-06-26T06:51:40;21.90;99.90
19555;DHT22;9924;50.828;6.440;2023-06-26T06:54:26;21.50;99.90
19555;DHT22;9924;50.828;6.440;2023-06-26T06:57:12;21.50;99.90
19555;DHT22;9924;50.828;6.440;2023-06-26T06:59:56;21.60;99.90
19555;DHT22;9924;50.828;6.440;2023-06-26T07:02:44;21.60;99.90
19555;DHT22;9924;50.828;6.440;2023-06-26T07:05:28;21.40;99.90
19555;DHT22;9924;50.828;6.440;2023-06-26T07:08:13;21.40;99.90
19555;DHT22;9924;50.828;6.440;2023-06-26T07:10:58;21.30;99.90
19555;DHT22;9924;50.828;6.440;2023-06-26T07:13:42;21.40;99.90
19555;DHT22;9924;50.828;6.440;2023-06-26T07:16:27;21.80;99.90
19555;DHT22;9924;50.828;6.440;2023-06-26T07:19:12;22.30;99.90
19555;DHT22;9924;50.828;6.440;2023-06-26T07:21:57;22.80;99.90
19555;DHT22;9924;50.828;6.440;2023-06-26T07:24:41;23.20;99.90
19555;DHT22;9924;50.828;6.440;2023-06-26T07:27:26;23.40;99.90
19555;DHT22;9924;50.828;6.440;2023-06-26T07:30:10;23.60;99.90
19555;DHT22;9924;50.828;6.440;2023-06-26T07:32:55;23.50;99.90
19555;DHT22;9924;50.828;6.440;2023-06-26T07:35:40;23.40;99.90
19555;DHT22;9924;50.828;6.440;2023-06-26T07:38:24;23.50;99.90
19555;DHT22;9924;50.828;6.440;2023-06-26T07:41:09;23.60;99.90
19555;DHT22;9924;50.828;6.440;2023-06-26T07:43:53;23.60;99.90
19555;DHT22;9924;50.828;6.440;2023-06-26T07:46:38;23.90;99.90
19555;DHT22;9924;50.828;6.440;2023-06-26T07:49:23;23.90;99.90
19555;DHT22;9924;50.828;6.440;2023-06-26T07:52:08;23.50;99.90
19555;DHT22;9924;50.828;6.440;2023-06-26T07:54:54;23.60;99.90
19555;DHT22;9924;50.828;6.440;2023-06-26T07:57:39;23.90;99.90
19555;DHT22;9924;50.828;6.440;2023-06-26T08:00:23;24.20;99.90
19555;DHT22;9924;50.828;6.440;2023-06-26T08:03:08;24.10;99.90
19555;DHT22;9924;50.828;6.440;2023-06-26T08:05:52;24.00;99.90
19555;DHT22;9924;50.828;6.440;2023-06-26T08:08:37;24.10;99.90
19555;DHT22;9924;50.828;6.440;2023-06-26T08:11:21;24.10;99.90
19555;DHT22;9924;50.828;6.440;2023-06-26T08:14:05;24.20;99.90
19555;DHT22;9924;50.828;6.440;2023-06-26T08:16:50;24.50;99.90
19555;DHT22;9924;50.828;6.440;2023-06-26T08:19:35;24.60;99.90
19555;DHT22;9924;50.828;6.440;2023-06-26T08:22:19;24.30;99.90
19555;DHT22;9924;50.828;6.440;2023-06-26T08:25:04;24.20;99.90
19555;DHT22;9924;50.828;6.440;2023-06-26T08:27:50;24.10;99.90
19555;DHT22;9924;50.828;6.440;2023-06-26T08:30:36;24.30;99.90
19555;DHT22;9924;50.828;6.440;2023-06-26T08:33:21;24.30;99.90
19555;DHT22;9924;50.828;6.440;2023-06-26T08:36:05;24.20;99.90
19555;DHT22;9924;50.828;6.440;2023-06-26T08:38:50;24.00;99.90
19555;DHT22;9924;50.828;6.440;2023-06-26T08:41:34;24.10;99.90
19555;DHT22;9924;50.828;6.440;2023-06-26T08:44:19;24.20;99.90
19555;DHT22;9924;50.828;6.440;2023-06-26T08:47:11;24.20;99.90
19555;DHT22;9924;50.828;6.440;2023-06-26T08:50:04;24.40;99.90
19555;DHT22;9924;50.828;6.440;2023-06-26T08:52:59;24.80;99.90
19555;DHT22;9924;50.828;6.440;2023-06-26T08:55:46;24.80;99.90
19555;DHT22;9924;50.828;6.440;2023-06-26T08:58:34;24.80;99.90
19555;DHT22;9924;50.828;6.440;2023-06-26T09:01:20;24.90;99.90
19555;DHT22;9924;50.828;6.440;2023-06-26T09:04:05;24.90;99.90
19555;DHT22;9924;50.828;6.440;2023-06-26T09:06:51;24.90;99.90
19555;DHT22;9924;50.828;6.440;2023-06-26T09:09:36;24.80;99.90
19555;DHT22;9924;50.828;6.440;2023-06-26T09:12:20;25.00;99.90
19555;DHT22;9924;50.828;6.440;2023-06-26T09:15:05;25.40;99.90
19555;DHT22;9924;50.828;6.440;2023-06-26T09:17:56;25.50;99.90
19555;DHT22;9924;50.828;6.440;2023-06-26T09:20:41;25.50;99.90
19555;DHT22;9924;50.828;6.440;2023-06-26T09:23:26;25.60;99.90
19555;DHT22;9924;50.828;6.440;2023-06-26T09:26:11;25.40;99.90
19555;DHT22;9924;50.828;6.440;2023-06-26T09:28:57;25.20;99.90
19555;DHT22;9924;50.828;6.440;2023-06-26T09:31:41;25.20;99.90
19555;DHT22;9924;50.828;6.440;2023-06-26T09:34:30;25.50;99.90
19555;DHT22;9924;50.828;6.440;2023-06-26T09:37:15;25.90;99.90
19555;DHT22;9924;50.828;6.440;2023-06-26T09:40:00;25.70;99.90
19555;DHT22;9924;50.828;6.440;2023-06-26T09:42:45;25.60;99.90
19555;DHT22;9924;50.828;6.440;2023-06-26T09:45:34;25.70;99.90
19555;DHT22;9924;50.828;6.440;2023-06-26T09:48:20;25.50;99.90
19555;DHT22;9924;50.828;6.440;2023-06-26T09:51:05;25.90;99.90
19555;DHT22;9924;50.828;6.440;2023-06-26T09:53:50;26.40;99.90
19555;DHT22;9924;50.828;6.440;2023-06-26T09:56:35;26.00;99.90
19555;DHT22;9924;50.828;6.440;2023-06-26T09:59:19;25.60;99.90
19555;DHT22;9924;50.828;6.440;2023-06-26T10:02:04;25.70;99.90
19555;DHT22;9924;50.828;6.440;2023-06-26T10:04:49;26.00;99.90
19555;DHT22;9924;50.828;6.440;2023-06-26T10:07:35;26.40;99.90
19555;DHT22;9924;50.828;6.440;2023-06-26T10:10:20;26.40;99.90
19555;DHT22;9924;50.828;6.440;2023-06-26T10:13:18;26.20;99.90
19555;DHT22;9924;50.828;6.440;2023-06-26T10:16:07;26.40;99.90
19555;DHT22;9924;50.828;6.440;2023-06-26T10:18:53;26.60;99.90
19555;DHT22;9924;50.828;6.440;2023-06-26T10:21:40;26.70;99.90
19555;DHT22;9924;50.828;6.440;2023-06-26T10:24:28;26.20;99.90
19555;DHT22;9924;50.828;6.440;2023-06-26T10:27:24;25.90;99.90
19555;DHT22;9924;50.828;6.440;2023-06-26T10:30:17;25.80;99.90
19555;DHT22;9924;50.828;6.440;2023-06-26T10:33:03;25.90;99.90
19555;DHT22;9924;50.828;6.440;2023-06-26T10:35:49;25.90;99.90
19555;DHT22;9924;50.828;6.440;2023-06-26T10:38:54;26.20;99.90
19555;DHT22;9924;50.828;6.440;2023-06-26T10:41:40;26.20;99.90
19555;DHT22;9924;50.828;6.440;2023-06-26T10:44:43;26.20;99.90
19555;DHT22;9924;50.828;6.440;2023-06-26T10:47:32;26.50;99.90
19555;DHT22;9924;50.828;6.440;2023-06-26T10:50:30;26.30;99.90
19555;DHT22;9924;50.828;6.440;2023-06-26T10:56:08;26.30;99.90
19555;DHT22;9924;50.828;6.440;2023-06-26T10:59:20;26.60;99.90
19555;DHT22;9924;50.828;6.440;2023-06-26T11:02:05;27.20;99.90
19555;DHT22;9924;50.828;6.440;2023-06-26T11:04:51;27.40;99.90
19555;DHT22;9924;50.828;6.440;2023-06-26T11:08:04;27.50;99.90
19555;DHT22;9924;50.828;6.440;2023-06-26T11:10:53;27.30;99.90
19555;DHT22;9924;50.828;6.440;2023-06-26T11:13:37;27.60;99.90
19555;DHT22;9924;50.828;6.440;2023-06-26T11:16:25;27.70;99.90
19555;DHT22;9924;50.828;6.440;2023-06-26T11:19:10;26.80;99.90
19555;DHT22;9924;50.828;6.440;2023-06-26T11:21:59;26.70;99.90
19555;DHT22;9924;50.828;6.440;2023-06-26T11:24:45;27.10;99.90
19555;DHT22;9924;50.828;6.440;2023-06-26T11:27:40;27.20;99.90
19555;DHT22;9924;50.828;6.440;2023-06-26T11:30:25;27.30;99.90
19555;DHT22;9924;50.828;6.440;2023-06-26T11:33:10;27.80;99.90
19555;DHT22;9924;50.828;6.440;2023-06-26T11:35:54;28.00;99.80
19555;DHT22;9924;50.828;6.440;2023-06-26T11:38:39;28.00;99.90
19555;DHT22;9924;50.828;6.440;2023-06-26T11:41:28;28.30;99.90
19555;DHT22;9924;50.828;6.440;2023-06-26T11:44:13;28.50;99.80
19555;DHT22;9924;50.828;6.440;2023-06-26T11:47:04;28.50;99.90
19555;DHT22;9924;50.828;6.440;2023-06-26T11:49:49;28.60;99.70
19555;DHT22;9924;50.828;6.440;2023-06-26T11:52:34;28.10;99.90
19555;DHT22;9924;50.828;6.440;2023-06-26T11:55:18;27.70;99.90
19555;DHT22;9924;50.828;6.440;2023-06-26T11:58:03;28.00;99.90
19555;DHT22;9924;50.828;6.440;2023-06-26T12:00:47;28.30;99.90
19555;DHT22;9924;50.828;6.440;2023-06-26T12:03:33;28.40;98.30
19555;DHT22;9924;50.828;6.440;2023-06-26T12:06:17;28.60;99.60
19555;DHT22;9924;50.828;6.440;2023-06-26T12:09:09;28.60;99.40
19555;DHT22;9924;50.828;6.440;2023-06-26T12:11:55;29.00;98.50
19555;DHT22;9924;50.828;6.440;2023-06-26T12:14:40;28.70;98.10
19555;DHT22;9924;50.828;6.440;2023-06-26T12:17:25;29.00;98.10
19555;DHT22;9924;50.828;6.440;2023-06-26T12:20:22;28.90;98.50
19555;DHT22;9924;50.828;6.440;2023-06-26T12:23:13;28.60;98.20
19555;DHT22;9924;50.828;6.440;2023-06-26T12:25:57;28.00;98.60
19555;DHT22;9924;50.828;6.440;2023-06-26T12:28:44;27.90;98.90
19555;DHT22;9924;50.828;6.440;2023-06-26T12:31:29;28.20;98.30
19555;DHT22;9924;50.828;6.440;2023-06-26T12:34:15;28.40;97.70
19555;DHT22;9924;50.828;6.440;2023-06-26T12:37:10;28.50;97.10
19555;DHT22;9924;50.828;6.440;2023-06-26T12:39:57;27.70;97.60
19555;DHT22;9924;50.828;6.440;2023-06-26T12:42:41;27.40;97.90
19555;DHT22;9924;50.828;6.440;2023-06-26T12:45:26;27.80;97.50
19555;DHT22;9924;50.828;6.440;2023-06-26T12:48:12;28.20;98.20
19555;DHT22;9924;50.828;6.440;2023-06-26T12:50:57;27.50;99.20
19555;DHT22;9924;50.828;6.440;2023-06-26T12:53:42;26.70;99.80
19555;DHT22;9924;50.828;6.440;2023-06-26T12:56:27;27.30;99.60
19555;DHT22;9924;50.828;6.440;2023-06-26T12:59:11;27.70;97.80
19555;DHT22;9924;50.828;6.440;2023-06-26T13:01:56;27.30;97.80
19555;DHT22;9924;50.828;6.440;2023-06-26T13:04:40;26.90;98.30
19555;DHT22;9924;50.828;6.440;2023-06-26T13:07:25;27.30;97.30
19555;DHT22;9924;50.828;6.440;2023-06-26T13:10:10;28.40;97.40
19555;DHT22;9924;50.828;6.440;2023-06-26T13:12:54;29.30;96.10
19555;DHT22;9924;50.828;6.440;2023-06-26T13:15:39;29.10;95.90
19555;DHT22;9924;50.828;6.440;2023-06-26T13:18:23;29.00;96.00
19555;DHT22;9924;50.828;6.440;2023-06-26T13:21:07;28.90;96.40
19555;DHT22;9924;50.828;6.440;2023-06-26T13:23:52;28.10;95.40
19555;DHT22;9924;50.828;6.440;2023-06-26T13:26:36;27.90;96.70
19555;DHT22;9924;50.828;6.440;2023-06-26T13:29:21;28.30;96.80
19555;DHT22;9924;50.828;6.440;2023-06-26T13:32:07;28.90;96.20
19555;DHT22;9924;50.828;6.440;2023-06-26T13:34:52;29.00;95.50
19555;DHT22;9924;50.828;6.440;2023-06-26T13:37:36;29.00;96.50
19555;DHT22;9924;50.828;6.440;2023-06-26T13:40:20;28.60;95.50
19555;DHT22;9924;50.828;6.440;2023-06-26T13:43:05;28.30;95.80
19555;DHT22;9924;50.828;6.440;2023-06-26T13:45:49;28.30;95.60
19555;DHT22;9924;50.828;6.440;2023-06-26T13:48:34;28.60;94.90
19555;DHT22;9924;50.828;6.440;2023-06-26T13:51:18;29.10;95.30
19555;DHT22;9924;50.828;6.440;2023-06-26T13:54:02;29.40;94.60
19555;DHT22;9924;50.828;6.440;2023-06-26T13:56:47;29.50;94.40
19555;DHT22;9924;50.828;6.440;2023-06-26T13:59:32;29.50;94.40
19555;DHT22;9924;50.828;6.440;2023-06-26T14:02:18;29.80;94.20
19555;DHT22;9924;50.828;6.440;2023-06-26T14:05:03;29.10;94.60
19555;DHT22;9924;50.828;6.440;2023-06-26T14:07:48;29.00;94.00
19555;DHT22;9924;50.828;6.440;2023-06-26T14:10:33;28.60;95.10
19555;DHT22;9924;50.828;6.440;2023-06-26T14:13:17;28.10;93.60
19555;DHT22;9924;50.828;6.440;2023-06-26T14:16:02;27.70;94.40
19555;DHT22;9924;50.828;6.440;2023-06-26T14:18:47;28.00;94.10
19555;DHT22;9924;50.828;6.440;2023-06-26T14:21:32;27.90;93.60
19555;DHT22;9924;50.828;6.440;2023-06-26T14:24:17;27.30;94.10
19555;DHT22;9924;50.828;6.440;2023-06-26T14:27:02;28.10;93.50
19555;DHT22;9924;50.828;6.440;2023-06-26T14:29:46;28.50;92.60
19555;DHT22;9924;50.828;6.440;2023-06-26T14:32:31;27.40;93.00
19555;DHT22;9924;50.828;6.440;2023-06-26T14:35:16;26.70;94.80
19555;DHT22;9924;50.828;6.440;2023-06-26T14:38:00;26.90;96.00
19555;DHT22;9924;50.828;6.440;2023-06-26T14:40:45;27.20;94.90
19555;DHT22;9924;50.828;6.440;2023-06-26T14:43:29;26.90;95.50
19555;DHT22;9924;50.828;6.440;2023-06-26T14:46:14;26.50;96.00
19555;DHT22;9924;50.828;6.440;2023-06-26T14:48:58;25.90;96.10
19555;DHT22;9924;50.828;6.440;2023-06-26T14:51:43;26.40;95.70
19555;DHT22;9924;50.828;6.440;2023-06-26T14:54:27;27.50;95.30
19555;DHT22;9924;50.828;6.440;2023-06-26T14:57:12;27.80;93.30
19555;DHT22;9924;50.828;6.440;2023-06-26T14:59:56;28.20;92.90
19555;DHT22;9924;50.828;6.440;2023-06-26T15:02:41;28.20;94.20
19555;DHT22;9924;50.828;6.440;2023-06-26T15:05:25;27.50;93.70
19555;DHT22;9924;50.828;6.440;2023-06-26T15:08:10;27.10;94.40
19555;DHT22;9924;50.828;6.440;2023-06-26T15:10:55;26.60;93.70
19555;DHT22;9924;50.828;6.440;2023-06-26T15:13:40;25.70;94.10
19555;DHT22;9924;50.828;6.440;2023-06-26T15:16:24;25.10;95.70
19555;DHT22;9924;50.828;6.440;2023-06-26T15:19:09;25.60;95.80
19555;DHT22;9924;50.828;6.440;2023-06-26T15:21:53;25.80;94.90
19555;DHT22;9924;50.828;6.440;2023-06-26T15:24:38;26.20;96.40
19555;DHT22;9924;50.828;6.440;2023-06-26T15:27:24;26.40;94.10
19555;DHT22;9924;50.828;6.440;2023-06-26T15:30:09;26.40;94.60
19555;DHT22;9924;50.828;6.440;2023-06-26T15:32:53;26.30;94.80
19555;DHT22;9924;50.828;6.440;2023-06-26T15:35:38;26.20;94.80
19555;DHT22;9924;50.828;6.440;2023-06-26T15:38:22;26.10;94.80
19555;DHT22;9924;50.828;6.440;2023-06-26T15:41:06;25.90;95.50
19555;DHT22;9924;50.828;6.440;2023-06-26T15:43:51;25.20;95.50
19555;DHT22;9924;50.828;6.440;2023-06-26T15:46:36;24.70;96.60
19555;DHT22;9924;50.828;6.440;2023-06-26T15:49:20;24.30;96.50
19555;DHT22;9924;50.828;6.440;2023-06-26T15:52:05;24.30;97.10
19555;DHT22;9924;50.828;6.440;2023-06-26T15:54:50;24.60;97.30
19555;DHT22;9924;50.828;6.440;2023-06-26T15:57:34;24.90;97.00
19555;DHT22;9924;50.828;6.440;2023-06-26T16:00:19;24.80;96.80
19555;DHT22;9924;50.828;6.440;2023-06-26T16:03:04;25.40;97.30
19555;DHT22;9924;50.828;6.440;2023-06-26T16:05:48;25.80;96.60
19555;DHT22;9924;50.828;6.440;2023-06-26T16:08:33;25.70;97.20
19555;DHT22;9924;50.828;6.440;2023-06-26T16:11:18;25.50;97.70
19555;DHT22;9924;50.828;6.440;2023-06-26T16:14:02;25.00;97.40
19555;DHT22;9924;50.828;6.440;2023-06-26T16:16:47;24.40;97.30
19555;DHT22;9924;50.828;6.440;2023-06-26T16:19:32;24.00;97.90
19555;DHT22;9924;50.828;6.440;2023-06-26T16:22:16;23.90;98.40
19555;DHT22;9924;50.828;6.440;2023-06-26T16:25:01;24.40;98.10
19555;DHT22;9924;50.828;6.440;2023-06-26T16:27:45;24.60;96.90
19555;DHT22;9924;50.828;6.440;2023-06-26T16:30:30;24.60;97.00
19555;DHT22;9924;50.828;6.440;2023-06-26T16:33:15;24.30;96.70
19555;DHT22;9924;50.828;6.440;2023-06-26T16:35:59;24.20;97.30
19555;DHT22;9924;50.828;6.440;2023-06-26T16:38:44;24.30;97.50
19555;DHT22;9924;50.828;6.440;2023-06-26T16:41:29;24.40;98.00
19555;DHT22;9924;50.828;6.440;2023-06-26T16:44:14;24.10;98.10
19555;DHT22;9924;50.828;6.440;2023-06-26T16:46:59;24.10;98.10
19555;DHT22;9924;50.828;6.440;2023-06-26T16:49:45;23.70;98.00
19555;DHT22;9924;50.828;6.440;2023-06-26T16:52:29;23.50;98.10
19555;DHT22;9924;50.828;6.440;2023-06-26T16:55:14;23.20;98.70
19555;DHT22;9924;50.828;6.440;2023-06-26T16:57:58;22.90;98.80
19555;DHT22;9924;50.828;6.440;2023-06-26T17:00:43;22.90;98.80
19555;DHT22;9924;50.828;6.440;2023-06-26T17:03:27;22.90;98.50
19555;DHT22;9924;50.828;6.440;2023-06-26T17:06:12;23.00;98.30
19555;DHT22;9924;50.828;6.440;2023-06-26T17:08:57;22.90;98.60
19555;DHT22;9924;50.828;6.440;2023-06-26T17:11:41;22.80;98.50
19555;DHT22;9924;50.828;6.440;2023-06-26T17:14:26;22.70;98.80
19555;DHT22;9924;50.828;6.440;2023-06-26T17:17:11;22.90;99.40
19555;DHT22;9924;50.828;6.440;2023-06-26T17:19:56;22.80;98.80
19555;DHT22;9924;50.828;6.440;2023-06-26T17:22:40;22.80;99.00
19555;DHT22;9924;50.828;6.440;2023-06-26T17:25:28;22.60;99.00
19555;DHT22;9924;50.828;6.440;2023-06-26T17:28:12;22.50;99.40
19555;DHT22;9924;50.828;6.440;2023-06-26T17:30:57;22.60;99.70
19555;DHT22;9924;50.828;6.440;2023-06-26T17:33:42;22.70;99.30
19555;DHT22;9924;50.828;6.440;2023-06-26T17:36:26;22.60;98.80
19555;DHT22;9924;50.828;6.440;2023-06-26T17:39:11;22.50;98.90
19555;DHT22;9924;50.828;6.440;2023-06-26T17:41:56;22.30;99.20
19555;DHT22;9924;50.828;6.440;2023-06-26T17:44:40;22.20;99.90
19555;DHT22;9924;50.828;6.440;2023-06-26T17:47:24;22.00;99.70